Time;durP1;ratioP1;P1;durP2;ratioP2;P2;SDS_P1;SDS_P2;PMS_P1;PMS_P2;Temp;Humidity;BMP_temperature;BMP_pressure;BME280_temperature;BME280_humidity;BME280_pressure;Samples;Min_cycle;Max_cycle;Signal;HPM_P1;HPM_P2
2022/07/11 00:02:02;;;;;;;;;7.67;6.00;;;;;21.37;53.12;101816.56;5061282;28;45304;-72
2022/07/11 00:04:32;;;;;;;;;7.33;6.67;;;;;21.38;53.00;101820.94;5061328;28;45287;-72
2022/07/11 00:06:58;;;;;;;;;5.00;5.00;;;;;21.36;52.89;101817.63;5060970;28;45728;-72
2022/07/11 00:09:23;;;;;;;;;5.33;5.33;;;;;21.31;53.45;101812.88;5060726;28;46453;-73
2022/07/11 00:11:49;;;;;;;;;4.67;4.67;;;;;21.23;53.43;101815.03;5060687;28;45383;-72
2022/07/11 00:14:17;;;;;;;;;4.00;4.00;;;;;21.18;53.87;101816.50;5049896;28;45319;-73
2022/07/11 00:16:43;;;;;;;;;4.33;4.33;;;;;21.10;53.93;101813.25;5067844;28;45339;-72
2022/07/11 00:19:08;;;;;;;;;4.00;4.00;;;;;21.03;54.26;101811.44;5060389;28;45133;-73
2022/07/11 00:21:35;;;;;;;;;4.33;4.33;;;;;20.95;54.58;101806.28;5060946;28;45398;-72
2022/07/11 00:24:02;;;;;;;;;5.00;5.00;;;;;20.89;54.57;101802.53;5042430;28;45376;-72
2022/07/11 00:26:28;;;;;;;;;5.00;4.33;;;;;20.88;54.60;101803.59;5042740;28;46007;-72
2022/07/11 00:28:54;;;;;;;;;5.67;5.33;;;;;20.88;54.88;101802.75;5060499;28;45314;-72
2022/07/11 00:31:19;;;;;;;;;5.00;5.00;;;;;20.91;54.59;101795.09;5061004;28;45435;-73
2022/07/11 00:33:45;;;;;;;;;3.33;3.00;;;;;20.94;54.50;101799.22;5060870;28;45367;-73
2022/07/11 00:36:10;;;;;;;;;4.33;4.33;;;;;20.92;54.54;101798.63;5042252;28;45533;-73
2022/07/11 00:38:36;;;;;;;;;6.33;5.67;;;;;20.89;54.32;101796.34;5060668;28;45327;-72
2022/07/11 00:41:01;;;;;;;;;6.00;5.67;;;;;20.88;54.82;101800.06;5060488;28;45343;-73
2022/07/11 00:43:38;;;;;;;;;4.33;4.33;;;;;20.89;54.44;101804.44;5047544;28;45377;-73
2022/07/11 00:46:05;;;;;;;;;5.33;5.33;;;;;20.90;54.76;101806.13;5060317;28;45387;-72
2022/07/11 00:48:30;;;;;;;;;4.67;4.67;;;;;20.92;54.16;101801.34;5060302;28;45456;-72
2022/07/11 00:50:57;;;;;;;;;4.00;4.00;;;;;20.93;54.75;101800.28;5060295;28;45307;-72
2022/07/11 00:53:23;;;;;;;;;4.00;4.00;;;;;20.87;54.65;101801.94;5060579;28;45405;-72
2022/07/11 00:55:52;;;;;;;;;4.00;4.00;;;;;20.77;54.99;101798.91;5060224;28;45349;-73
2022/07/11 00:58:18;;;;;;;;;6.33;6.33;;;;;20.69;55.06;101800.78;5042029;28;46179;-73
2022/07/11 01:00:44;;;;;;;;;5.33;5.33;;;;;20.62;55.38;101794.59;5042311;28;45758;-72
2022/07/11 01:03:09;;;;;;;;;7.00;7.00;;;;;20.58;55.94;101792.53;5055363;28;45552;-72
2022/07/11 01:05:34;;;;;;;;;4.67;4.67;;;;;20.49;55.99;101790.09;5042132;28;47058;-72
2022/07/11 01:08:00;;;;;;;;;7.33;6.00;;;;;20.40;55.95;101788.69;5059964;28;45311;-73
2022/07/11 01:10:25;;;;;;;;;7.00;7.00;;;;;20.33;56.23;101782.50;5059996;28;45474;-72
2022/07/11 01:12:51;;;;;;;;;6.00;6.00;;;;;20.30;56.24;101799.97;5060273;28;45390;-72
2022/07/11 01:15:16;;;;;;;;;7.00;6.33;;;;;20.20;56.65;101799.59;5059986;28;45312;-72
2022/07/11 01:17:42;;;;;;;;;5.00;5.00;;;;;20.13;56.77;101794.19;5067153;28;46579;-72
2022/07/11 01:20:09;;;;;;;;;7.33;7.00;;;;;20.09;57.06;101791.13;5059992;28;45249;-73
2022/07/11 01:22:39;;;;;;;;;5.67;5.67;;;;;20.05;57.03;101779.91;5059722;28;45336;-73
2022/07/11 01:25:06;;;;;;;;;5.00;5.00;;;;;19.99;57.14;101780.72;5059993;28;45597;-72
2022/07/11 01:27:32;;;;;;;;;3.33;3.33;;;;;19.98;57.30;101781.78;5059529;28;46336;-72
2022/07/11 01:29:58;;;;;;;;;4.00;4.00;;;;;19.93;57.59;101781.56;5059917;28;45296;-72
2022/07/11 01:32:23;;;;;;;;;6.00;6.00;;;;;19.92;57.64;101782.63;5059770;28;45308;-72
2022/07/11 01:34:48;;;;;;;;;5.00;5.00;;;;;19.94;57.68;101780.53;5058595;28;45426;-73
2022/07/11 01:37:14;;;;;;;;;5.33;5.33;;;;;19.94;57.38;101780.53;5059688;28;46430;-72
2022/07/11 01:39:39;;;;;;;;;6.67;6.00;;;;;19.89;57.90;101775.78;5059507;28;45331;-72
2022/07/11 01:42:05;;;;;;;;;3.33;3.33;;;;;19.93;57.58;101771.63;5049630;28;45517;-72
2022/07/11 01:44:30;;;;;;;;;6.00;6.00;;;;;19.96;57.57;101783.03;5059664;28;45462;-72
2022/07/11 01:46:55;;;;;;;;;5.00;5.00;;;;;19.94;57.53;101778.66;5059457;28;46593;-72
2022/07/11 01:49:21;;;;;;;;;6.00;6.00;;;;;19.97;57.47;101773.88;5059364;28;45256;-72
2022/07/11 01:51:48;;;;;;;;;5.00;5.00;;;;;20.04;57.53;101782.81;5041722;28;45277;-72
2022/07/11 01:54:14;;;;;;;;;7.00;6.00;;;;;20.06;57.33;101775.34;5041196;28;47376;-72
2022/07/11 01:56:39;;;;;;;;;5.33;5.33;;;;;20.10;57.54;101783.84;5059312;28;45274;-72
2022/07/11 01:59:05;;;;;;;;;8.00;6.33;;;;;20.11;57.30;101772.81;5059574;28;45224;-72
2022/07/11 02:01:30;;;;;;;;;5.00;5.00;;;;;20.10;57.13;101776.56;5059507;28;45465;-72
2022/07/11 02:03:55;;;;;;;;;5.00;5.00;;;;;20.10;57.32;101764.94;5037839;28;46848;-72
2022/07/11 02:06:21;;;;;;;;;6.00;6.00;;;;;20.06;57.52;101773.47;5053921;28;45457;-72
2022/07/11 02:08:46;;;;;;;;;4.67;4.67;;;;;20.06;57.40;101780.75;5059409;28;45549;-72
2022/07/11 02:11:11;;;;;;;;;4.33;4.33;;;;;20.04;57.67;101780.13;5059208;28;45331;-73
2022/07/11 02:13:37;;;;;;;;;3.00;3.00;;;;;20.00;57.60;101778.88;5059245;28;45433;-72
2022/07/11 02:16:03;;;;;;;;;5.67;5.33;;;;;19.98;57.89;101783.63;5062858;28;45450;-72
2022/07/11 02:18:28;;;;;;;;;2.00;2.00;;;;;19.97;57.75;101790.06;5044288;28;45304;-72
2022/07/11 02:20:54;;;;;;;;;5.00;5.00;;;;;19.92;58.07;101782.63;5059044;28;45895;-72
2022/07/11 02:23:20;;;;;;;;;5.67;5.00;;;;;19.91;58.28;101786.38;5048027;28;46871;-72
2022/07/11 02:25:46;;;;;;;;;4.00;4.00;;;;;19.84;58.23;101782.84;5058772;28;45428;-72
2022/07/11 02:28:12;;;;;;;;;6.00;6.00;;;;;19.78;58.53;101773.72;5059081;28;45262;-72
2022/07/11 02:30:40;;;;;;;;;7.00;5.33;;;;;19.76;58.77;101784.75;5058902;28;45403;-72
2022/07/11 02:33:07;;;;;;;;;6.33;6.33;;;;;19.70;58.78;101782.88;5058889;28;45260;-73
2022/07/11 02:35:33;;;;;;;;;6.00;6.00;;;;;19.64;59.12;101783.72;5058762;28;45378;-72
2022/07/11 02:38:00;;;;;;;;;4.67;4.67;;;;;19.54;59.42;101781.44;5058627;28;45354;-72
2022/07/11 02:40:28;;;;;;;;;5.00;5.00;;;;;19.41;59.46;101775.03;5059086;28;45723;-72
2022/07/11 02:42:55;;;;;;;;;2.67;2.67;;;;;19.36;60.00;101776.72;5058719;28;45302;-72
2022/07/11 02:45:20;;;;;;;;;3.67;3.67;;;;;19.34;60.08;101779.59;5059681;28;45644;-72
2022/07/11 02:47:46;;;;;;;;;5.00;5.00;;;;;19.30;60.12;101771.09;5062002;28;45501;-73
2022/07/11 02:50:13;;;;;;;;;6.00;5.67;;;;;19.27;59.90;101776.91;5062551;28;45351;-72
2022/07/11 02:52:42;;;;;;;;;4.00;4.00;;;;;19.26;60.48;101777.09;5054852;28;45605;-72
2022/07/11 02:55:10;;;;;;;;;5.00;5.00;;;;;19.23;60.29;101775.66;5048658;28;46324;-72
2022/07/11 02:57:38;;;;;;;;;4.00;4.00;;;;;19.17;60.26;101763.00;5062200;28;45429;-72
2022/07/11 03:00:04;;;;;;;;;5.00;5.00;;;;;19.16;60.89;101762.19;5062293;28;45362;-72
2022/07/11 03:02:30;;;;;;;;;5.00;5.00;;;;;19.14;60.75;101761.56;5062020;28;45310;-72
2022/07/11 03:04:57;;;;;;;;;4.67;4.67;;;;;19.16;60.90;101751.41;5061758;28;45481;-72
2022/07/11 03:07:24;;;;;;;;;6.67;6.67;;;;;19.16;60.41;101762.19;5043878;28;45330;-72
2022/07/11 03:09:49;;;;;;;;;5.33;5.33;;;;;19.15;60.60;101762.38;5061924;28;45273;-73
2022/07/11 03:12:14;;;;;;;;;4.67;4.67;;;;;19.10;60.90;101763.03;5043795;28;46429;-72
2022/07/11 03:14:40;;;;;;;;;8.00;7.00;;;;;19.08;60.63;101757.00;5053839;28;46964;-72
2022/07/11 03:17:05;;;;;;;;;5.00;5.00;;;;;19.12;61.03;101776.25;5068914;28;45289;-72
2022/07/11 03:19:30;;;;;;;;;6.00;6.00;;;;;19.15;60.67;101781.25;5043925;28;45362;-72
2022/07/11 03:21:56;;;;;;;;;5.00;5.00;;;;;19.14;60.92;101768.81;5061754;28;45350;-72
2022/07/11 03:24:21;;;;;;;;;4.33;4.33;;;;;19.15;61.05;101773.16;5061672;28;45360;-72
2022/07/11 03:26:46;;;;;;;;;4.00;4.00;;;;;19.16;60.84;101775.66;5061684;28;45349;-72
2022/07/11 03:29:11;;;;;;;;;4.67;4.00;;;;;19.12;60.88;101777.09;5061826;28;45328;-72
2022/07/11 03:31:37;;;;;;;;;4.00;4.00;;;;;19.07;61.37;101776.88;5043586;28;47180;-72
2022/07/11 03:34:02;;;;;;;;;4.00;4.00;;;;;19.07;61.18;101778.72;5061324;28;45595;-72
2022/07/11 03:36:28;;;;;;;;;3.00;3.00;;;;;19.05;60.96;101782.47;5061823;28;45315;-73
2022/07/11 03:38:53;;;;;;;;;5.33;5.33;;;;;19.03;60.99;101786.38;5061762;28;45419;-72
2022/07/11 03:41:19;;;;;;;;;4.00;4.00;;;;;18.99;61.42;101785.97;5061400;28;45511;-72
2022/07/11 03:43:44;;;;;;;;;7.00;6.00;;;;;18.96;61.25;101788.25;5061456;28;45375;-72
2022/07/11 03:46:09;;;;;;;;;6.00;6.00;;;;;18.93;61.70;101786.81;5056425;28;48715;-72
2022/07/11 03:48:35;;;;;;;;;6.00;6.00;;;;;18.90;61.36;101790.75;5061531;28;45746;-72
2022/07/11 03:51:00;;;;;;;;;3.67;3.67;;;;;18.89;62.13;101788.25;5054486;28;46823;-72
2022/07/11 03:53:26;;;;;;;;;4.00;4.00;;;;;18.83;62.11;101783.69;5061301;28;45339;-72
2022/07/11 03:55:51;;;;;;;;;5.67;5.67;;;;;18.80;62.23;101780.34;5061138;28;52725;-73
2022/07/11 03:58:16;;;;;;;;;5.00;5.00;;;;;18.77;62.45;101788.03;5060419;28;45530;-72
2022/07/11 04:00:42;;;;;;;;;5.00;5.00;;;;;18.71;62.38;101789.66;5061365;28;45513;-72
2022/07/11 04:03:07;;;;;;;;;6.00;6.00;;;;;18.65;62.92;101788.59;5055512;28;48316;-72
2022/07/11 04:05:32;;;;;;;;;3.00;3.00;;;;;18.59;62.36;101777.81;5061126;28;45483;-72
2022/07/11 04:07:58;;;;;;;;;5.33;4.33;;;;;18.62;62.63;101777.41;5061103;28;45312;-72
2022/07/11 04:10:24;;;;;;;;;6.00;6.00;;;;;18.61;62.61;101778.44;5045760;28;46345;-73
2022/07/11 04:12:49;;;;;;;;;5.33;4.33;;;;;18.64;63.08;101780.72;5043100;28;47196;-72
2022/07/11 04:15:14;;;;;;;;;5.00;5.00;;;;;18.67;62.41;101777.63;5057748;28;45306;-72
2022/07/11 04:17:40;;;;;;;;;4.00;4.00;;;;;18.67;62.79;101783.00;5049893;28;45377;-72
2022/07/11 04:20:06;;;;;;;;;4.67;4.67;;;;;18.69;62.89;101786.34;5061056;28;45376;-72
2022/07/11 04:22:31;;;;;;;;;4.00;4.00;;;;;18.68;62.84;101773.91;5057347;28;48250;-72
2022/07/11 04:24:57;;;;;;;;;5.00;5.00;;;;;18.72;62.82;101777.84;5039469;28;45893;-72
2022/07/11 04:27:24;;;;;;;;;4.00;4.00;;;;;18.74;63.16;101769.56;5053937;28;45545;-72
2022/07/11 04:29:49;;;;;;;;;6.33;6.33;;;;;18.73;63.24;101774.13;5060999;28;45328;-72
2022/07/11 04:32:14;;;;;;;;;4.00;4.00;;;;;18.72;62.86;101767.09;5060606;28;45588;-72
2022/07/11 04:34:40;;;;;;;;;4.33;4.33;;;;;18.75;62.58;101771.22;5060442;28;45296;-72
2022/07/11 04:37:05;;;;;;;;;8.00;6.33;;;;;18.82;62.80;101779.34;5060909;28;45328;-72
2022/07/11 04:39:34;;;;;;;;;6.00;4.00;;;;;18.82;62.74;101774.75;5060551;28;45532;-72
2022/07/11 04:42:00;;;;;;;;;4.00;4.00;;;;;18.84;62.36;101771.84;5060531;28;45400;-72
2022/07/11 04:44:27;;;;;;;;;5.33;4.67;;;;;18.89;62.27;101777.47;5041417;28;45406;-72
2022/07/11 04:46:52;;;;;;;;;5.00;5.00;;;;;18.89;62.45;101782.88;5060589;28;45350;-72
2022/07/11 04:49:18;;;;;;;;;14.00;13.67;;;;;18.91;62.03;101773.53;5060082;28;45402;-72
2022/07/11 04:51:44;;;;;;;;;8.33;7.33;;;;;19.00;62.38;101787.63;5060489;28;45394;-72
2022/07/11 04:54:09;;;;;;;;;7.33;7.33;;;;;19.01;61.91;101789.28;5051440;28;45590;-72
2022/07/11 04:56:34;;;;;;;;;11.33;11.33;;;;;19.03;62.33;101792.63;5060238;28;45343;-72
2022/07/11 04:59:00;;;;;;;;;59.75;47.50;;;;;19.09;61.92;101788.28;5060337;28;45725;-72
2022/07/11 05:01:25;;;;;;;;;52.75;41.75;;;;;19.12;62.32;101793.28;5060039;28;45377;-73
2022/07/11 05:03:51;;;;;;;;;69.25;57.50;;;;;19.14;61.71;101799.28;5060333;28;45296;-72
2022/07/11 05:06:16;;;;;;;;;95.00;82.75;;;;;19.13;61.55;101802.19;5060033;28;45446;-72
2022/07/11 05:08:42;;;;;;;;;104.25;93.00;;;;;19.12;61.56;101798.66;5060176;28;45556;-72
2022/07/11 05:11:07;;;;;;;;;173.67;152.00;;;;;19.18;61.74;101807.78;5059946;28;46283;-72
2022/07/11 05:13:32;;;;;;;;;133.75;116.75;;;;;19.21;61.63;101815.44;5059923;28;45225;-72
2022/07/11 05:15:58;;;;;;;;;73.25;61.75;;;;;19.26;62.06;101821.06;5063356;28;45171;-72
2022/07/11 05:18:23;;;;;;;;;128.50;111.25;;;;;19.28;61.99;101818.16;5063764;28;45340;-72
2022/07/11 05:20:49;;;;;;;;;79.50;66.75;;;;;19.34;62.49;101819.19;5059881;28;45748;-72
2022/07/11 05:23:14;;;;;;;;;91.50;79.25;;;;;19.36;62.23;101811.75;5059763;28;45380;-73
2022/07/11 05:25:40;;;;;;;;;32.67;27.67;;;;;19.38;62.33;101806.97;5059962;28;45201;-72
2022/07/11 05:28:05;;;;;;;;;7.00;7.00;;;;;19.42;61.93;101818.97;5041917;28;46290;-72
2022/07/11 05:30:31;;;;;;;;;9.00;7.00;;;;;19.42;62.18;101816.28;5059844;28;45371;-72
2022/07/11 05:32:56;;;;;;;;;20.33;18.00;;;;;19.45;62.00;101812.38;5059424;28;45467;-72
2022/07/11 05:35:21;;;;;;;;;18.33;16.33;;;;;19.51;62.13;101815.03;5060029;28;45342;-72
2022/07/11 05:37:47;;;;;;;;;35.67;30.00;;;;;19.55;61.72;101813.59;5059552;28;45431;-72
2022/07/11 05:40:12;;;;;;;;;49.25;37.25;;;;;19.61;61.46;101816.50;5059635;28;45497;-72
2022/07/11 05:42:37;;;;;;;;;126.75;110.75;;;;;19.64;61.15;101824.97;5059476;28;45423;-72
2022/07/11 05:45:03;;;;;;;;;97.50;91.00;;;;;19.66;61.61;101822.06;5059857;28;45300;-72
2022/07/11 05:47:28;;;;;;;;;94.50;83.75;;;;;19.70;61.44;101823.34;5040983;28;46351;-73
2022/07/11 05:49:54;;;;;;;;;86.75;74.00;;;;;19.73;61.19;101827.47;5057103;28;48088;-72
2022/07/11 05:52:19;;;;;;;;;148.33;128.67;;;;;19.75;61.48;101820.00;5059466;28;45323;-72
2022/07/11 05:54:44;;;;;;;;;106.50;90.50;;;;;19.81;61.68;101814.59;5059426;28;45392;-72
2022/07/11 05:57:10;;;;;;;;;65.00;50.00;;;;;19.87;61.74;101818.31;5059437;28;45481;-72
2022/07/11 05:59:35;;;;;;;;;14.33;13.67;;;;;19.88;61.69;101822.69;5059398;28;45321;-73
2022/07/11 06:02:02;;;;;;;;;40.67;32.33;;;;;19.90;61.26;101819.75;5059457;28;45328;-73
2022/07/11 06:04:27;;;;;;;;;7.00;7.00;;;;;19.94;61.55;101821.81;5059364;28;45336;-72
2022/07/11 06:06:53;;;;;;;;;6.00;6.00;;;;;19.98;61.67;101816.84;5056988;28;46091;-72
2022/07/11 06:09:18;;;;;;;;;16.67;15.67;;;;;20.04;61.71;101821.44;5059105;28;46401;-73
2022/07/11 06:11:43;;;;;;;;;63.00;50.75;;;;;20.14;61.53;101828.25;5041009;28;45182;-73
2022/07/11 06:14:09;;;;;;;;;46.67;36.00;;;;;20.21;61.99;101828.22;5059398;28;45371;-73
2022/07/11 06:16:35;;;;;;;;;81.00;72.25;;;;;20.29;61.32;101825.28;5066417;28;45170;-72
2022/07/11 06:19:00;;;;;;;;;9.33;7.67;;;;;20.34;61.17;101820.06;5037705;28;47484;-73
2022/07/11 06:21:27;;;;;;;;;7.00;7.00;;;;;20.43;60.80;101826.06;5029494;28;45406;-72
2022/07/11 06:23:52;;;;;;;;;10.33;10.33;;;;;20.48;60.69;101831.66;5040920;28;45371;-73
2022/07/11 06:26:18;;;;;;;;;8.67;7.00;;;;;20.53;60.65;101828.31;5059090;28;45334;-72
2022/07/11 06:28:43;;;;;;;;;7.00;7.00;;;;;20.58;60.88;101825.78;5058986;28;45466;-73
2022/07/11 06:31:09;;;;;;;;;45.67;36.00;;;;;20.65;60.66;101831.16;5056575;28;45858;-73
2022/07/11 06:33:35;;;;;;;;;8.00;8.00;;;;;20.72;60.54;101829.25;5040817;28;45688;-73
2022/07/11 06:36:01;;;;;;;;;15.33;14.33;;;;;20.81;60.18;101830.63;5054507;28;46348;-73
2022/07/11 06:38:28;;;;;;;;;5.00;5.00;;;;;20.88;60.09;101833.31;5049661;28;46540;-73
2022/07/11 06:40:53;;;;;;;;;6.67;6.33;;;;;20.95;59.87;101836.00;5054143;28;45445;-73
2022/07/11 06:43:19;;;;;;;;;6.67;6.67;;;;;20.98;59.75;101826.66;5058986;28;45304;-73
2022/07/11 06:45:44;;;;;;;;;13.67;10.33;;;;;21.07;59.60;101828.00;5045718;28;45433;-73
2022/07/11 06:48:10;;;;;;;;;14.00;13.67;;;;;21.15;59.52;101824.22;5057349;28;46524;-73
2022/07/11 06:50:36;;;;;;;;;51.67;39.33;;;;;21.27;59.22;101821.63;5058917;28;45384;-73
2022/07/11 06:53:02;;;;;;;;;26.33;24.33;;;;;21.40;58.92;101823.44;5058639;28;45319;-73
2022/07/11 06:55:28;;;;;;;;;22.33;22.00;;;;;21.48;58.68;101809.63;5049680;28;45513;-73
2022/07/11 06:57:53;;;;;;;;;8.67;8.67;;;;;21.51;59.05;101811.88;5053376;28;50845;-73
2022/07/11 07:00:19;;;;;;;;;7.67;6.67;;;;;21.57;58.42;101811.00;5040744;28;45392;-73
2022/07/11 07:02:45;;;;;;;;;6.00;6.00;;;;;21.70;58.56;101814.63;5058618;28;45491;-73
2022/07/11 07:05:11;;;;;;;;;6.00;6.00;;;;;21.76;58.61;101811.03;5056270;28;46148;-73
2022/07/11 07:07:36;;;;;;;;;16.67;15.67;;;;;21.84;58.84;101815.34;5040171;28;47185;-73
2022/07/11 07:10:03;;;;;;;;;11.00;11.00;;;;;21.93;58.33;101810.44;5058097;28;45384;-73
2022/07/11 07:12:28;;;;;;;;;12.67;11.00;;;;;22.06;58.06;101823.03;5058655;28;45340;-73
2022/07/11 07:14:54;;;;;;;;;9.67;9.67;;;;;22.18;58.17;101821.19;5058272;28;45342;-74
2022/07/11 07:17:19;;;;;;;;;15.33;14.67;;;;;22.30;57.69;101820.44;5065298;28;46297;-74
2022/07/11 07:19:45;;;;;;;;;8.33;8.33;;;;;22.39;57.46;101826.38;5058296;28;45236;-74
2022/07/11 07:22:14;;;;;;;;;11.33;11.00;;;;;22.50;57.38;101827.47;5038102;28;45420;-74
2022/07/11 07:24:40;;;;;;;;;8.67;8.67;;;;;22.58;57.10;101816.38;5040169;28;45930;-73
2022/07/11 07:27:05;;;;;;;;;10.67;9.33;;;;;22.68;56.94;101821.22;5057976;28;46107;-74
2022/07/11 07:29:32;;;;;;;;;52.25;42.50;;;;;22.76;56.51;101825.50;5058031;28;45347;-73
2022/07/11 07:31:58;;;;;;;;;24.67;23.33;;;;;22.84;56.12;101822.47;5058586;28;45562;-73
2022/07/11 07:34:23;;;;;;;;;27.33;25.67;;;;;22.90;56.11;101826.94;5061351;28;45359;-73
2022/07/11 07:36:48;;;;;;;;;47.67;36.67;;;;;22.98;55.24;101830.41;5061709;28;46440;-74
2022/07/11 07:39:14;;;;;;;;;9.00;6.67;;;;;23.03;55.35;101825.94;5042489;28;45356;-73
2022/07/11 07:41:39;;;;;;;;;25.67;23.33;;;;;23.12;55.11;101817.44;5055813;28;45468;-73
2022/07/11 07:44:04;;;;;;;;;6.00;6.00;;;;;23.25;54.14;101825.38;5061384;28;45425;-73
2022/07/11 07:46:30;;;;;;;;;22.33;22.33;;;;;23.35;54.64;101819.38;5060977;28;45296;-72
2022/07/11 07:48:56;;;;;;;;;50.33;38.67;;;;;23.40;54.19;101824.94;5060322;28;45261;-73
2022/07/11 07:51:21;;;;;;;;;30.33;28.67;;;;;23.49;54.16;101833.56;5060971;28;45320;-74
2022/07/11 07:53:47;;;;;;;;;8.00;8.00;;;;;23.56;53.75;101828.84;5061115;28;45347;-74
2022/07/11 07:56:12;;;;;;;;;33.33;30.67;;;;;23.65;53.26;101829.34;5061143;28;46704;-73
2022/07/11 07:58:38;;;;;;;;;6.67;6.67;;;;;23.73;53.27;101824.59;5042941;28;45675;-74
2022/07/11 08:03:48;;;;;;;;;49.67;38.67;;;;;23.92;52.44;101819.88;5060919;28;45321;-73
2022/07/11 08:06:13;;;;;;;;;14.00;12.00;;;;;24.01;52.01;101823.88;5060969;28;45845;-73
2022/07/11 08:08:38;;;;;;;;;70.50;58.75;;;;;24.06;52.17;101832.09;5060878;28;45375;-72
2022/07/11 08:11:04;;;;;;;;;12.33;10.33;;;;;24.13;51.79;101829.31;5060827;28;45372;-72
2022/07/11 08:13:29;;;;;;;;;5.00;5.00;;;;;24.19;50.71;101822.06;5040560;28;46097;-72
2022/07/11 08:15:56;;;;;;;;;5.00;5.00;;;;;24.24;50.71;101818.66;5063412;28;46222;-73
2022/07/11 08:18:21;;;;;;;;;67.25;53.25;;;;;24.27;50.82;101818.16;5067350;28;45288;-73
2022/07/11 08:20:46;;;;;;;;;37.33;30.33;;;;;24.40;50.85;101822.47;5060844;28;45216;-73
2022/07/11 08:23:15;;;;;;;;;6.00;5.33;;;;;24.49;50.77;101815.59;5042618;28;46294;-73
2022/07/11 08:25:40;;;;;;;;;7.00;7.00;;;;;24.55;49.92;101817.34;5060667;28;46419;-73
2022/07/11 08:28:06;;;;;;;;;43.67;35.33;;;;;24.62;49.48;101819.91;5060408;28;45738;-74
2022/07/11 08:30:31;;;;;;;;;55.25;42.75;;;;;24.69;49.67;101814.34;5060724;28;45394;-74
2022/07/11 08:32:57;;;;;;;;;13.33;12.33;;;;;24.75;49.85;101807.91;5046138;28;45356;-73
2022/07/11 08:35:23;;;;;;;;;74.50;66.00;;;;;24.78;49.39;101793.81;5060644;28;45609;-73
2022/07/11 08:37:48;;;;;;;;;81.50;71.50;;;;;24.90;49.36;101807.38;5056674;28;45385;-74
2022/07/11 08:40:13;;;;;;;;;7.33;6.67;;;;;24.94;48.84;101794.13;5060489;28;45661;-73
2022/07/11 08:42:44;;;;;;;;;30.67;28.33;;;;;24.98;48.68;101787.13;5060138;28;45439;-73
2022/07/11 08:45:16;;;;;;;;;44.33;36.00;;;;;25.04;48.77;101793.47;5060488;28;46382;-74
2022/07/11 08:47:45;;;;;;;;;33.00;29.67;;;;;25.09;48.65;101783.50;5059952;28;45448;-73
2022/07/11 08:50:12;;;;;;;;;9.33;7.67;;;;;25.12;48.64;101776.75;5042443;28;45391;-73
2022/07/11 08:52:38;;;;;;;;;6.00;6.00;;;;;25.22;48.13;101786.94;5046388;28;45474;-73
2022/07/11 08:55:07;;;;;;;;;43.33;33.33;;;;;25.27;48.01;101780.78;5045975;28;46522;-73
2022/07/11 08:57:36;;;;;;;;;15.33;15.00;;;;;25.30;48.16;101778.38;5060513;28;45301;-73
2022/07/11 09:00:08;;;;;;;;;33.33;28.33;;;;;25.39;47.95;101777.94;5057749;28;45426;-73
2022/07/11 09:02:35;;;;;;;;;6.67;6.67;;;;;25.40;47.56;101765.97;5060214;28;45415;-73
2022/07/11 09:05:05;;;;;;;;;6.00;6.00;;;;;25.43;47.96;101773.66;5057392;28;45979;-73
2022/07/11 09:07:31;;;;;;;;;4.00;3.67;;;;;25.51;47.44;101775.97;5060088;28;45367;-73
2022/07/11 09:09:56;;;;;;;;;3.00;3.00;;;;;25.56;47.54;101776.00;5057746;28;45292;-73
2022/07/11 09:12:22;;;;;;;;;30.67;28.67;;;;;25.62;47.62;101765.25;5048506;28;45261;-72
2022/07/11 09:14:48;;;;;;;;;23.67;22.33;;;;;25.69;47.56;101772.16;5059885;28;49239;-73
2022/07/11 09:17:14;;;;;;;;;50.33;37.33;;;;;25.74;47.03;101767.84;5049007;28;45665;-73
2022/07/11 09:19:39;;;;;;;;;15.00;15.00;;;;;25.79;47.48;101763.28;5041506;28;45759;-73
2022/07/11 09:25:25;;;;;;;;;30.00;25.67;;;;;26.01;46.94;101770.59;5059841;28;45260;-73
2022/07/11 09:28:04;;;;;;;;;3.67;3.67;;;;;26.08;47.18;101762.25;5059559;28;45412;-72
2022/07/11 09:30:31;;;;;;;;;7.00;7.00;;;;;26.13;46.98;101761.50;5059952;28;45323;-73
2022/07/11 09:33:02;;;;;;;;;17.33;15.67;;;;;26.20;46.57;101762.13;5057921;28;46119;-74
2022/07/11 09:35:31;;;;;;;;;5.00;5.00;;;;;26.25;46.41;101769.53;5059449;28;45251;-73
2022/07/11 09:37:57;;;;;;;;;20.67;20.33;;;;;26.33;46.00;101764.47;5054402;28;45367;-73
2022/07/11 09:40:23;;;;;;;;;3.00;3.00;;;;;26.35;45.96;101753.31;5032744;28;45337;-72
2022/07/11 09:42:54;;;;;;;;;66.25;56.00;;;;;26.39;46.33;101748.19;5041001;28;47020;-72
2022/07/11 09:45:21;;;;;;;;;56.50;45.50;;;;;26.48;45.67;101754.78;5059326;28;45652;-72
2022/07/11 09:47:48;;;;;;;;;12.00;11.67;;;;;26.56;45.44;101753.50;5039368;28;45345;-73
2022/07/11 09:50:21;;;;;;;;;18.33;16.00;;;;;26.66;45.46;101748.16;5059547;28;45413;-72
2022/07/11 09:52:59;;;;;;;;;30.67;27.67;;;;;26.75;45.26;101748.47;5059208;28;45300;-72
2022/07/11 09:55:29;;;;;;;;;13.33;11.67;;;;;26.85;45.19;101764.13;5058241;28;45327;-72
2022/07/11 09:57:54;;;;;;;;;28.00;26.00;;;;;26.91;44.45;101762.25;5053300;28;45335;-72
2022/07/11 10:00:19;;;;;;;;;4.67;4.33;;;;;26.97;45.33;101755.75;5044636;28;45718;-73
2022/07/11 10:02:45;;;;;;;;;10.00;10.00;;;;;27.04;44.40;101750.94;5059428;28;45214;-74
2022/07/11 10:05:12;;;;;;;;;47.00;39.67;;;;;27.15;44.77;101760.00;5058969;28;45255;-73
2022/07/11 10:07:37;;;;;;;;;8.00;8.00;;;;;27.25;43.94;101747.50;5040761;28;45285;-73
2022/07/11 10:10:05;;;;;;;;;6.67;6.67;;;;;27.38;44.26;101751.69;5059132;28;45320;-73
2022/07/11 10:12:32;;;;;;;;;5.00;5.00;;;;;27.45;43.44;101749.53;5058969;28;45733;-73
2022/07/11 10:15:01;;;;;;;;;24.00;23.00;;;;;27.56;43.32;101745.75;5040931;28;48293;-73
2022/07/11 10:17:29;;;;;;;;;5.00;5.00;;;;;27.65;42.90;101757.03;5064613;28;45513;-73
2022/07/11 10:20:19;;;;;;;;;55.50;43.50;;;;;27.72;42.85;101748.59;5059491;28;45415;-75
2022/07/11 10:23:00;;;;;;;;;7.00;7.00;;;;;27.82;42.71;101754.09;5057523;28;45881;-76
2022/07/11 10:25:39;;;;;;;;;56.50;45.75;;;;;27.97;42.74;101763.44;5059334;28;46188;-75
2022/07/11 10:28:25;;;;;;;;;15.00;13.67;;;;;28.09;42.53;101765.91;5025239;28;45878;-75
2022/07/11 10:30:55;;;;;;;;;21.67;18.33;;;;;28.21;42.26;101755.56;5055570;28;45450;-75
2022/07/11 10:33:21;;;;;;;;;73.75;65.00;;;;;28.39;42.44;101763.53;5058683;28;45418;-75
2022/07/11 10:35:49;;;;;;;;;19.00;16.67;;;;;28.54;41.74;101760.84;5038369;28;48741;-75
2022/07/11 10:38:15;;;;;;;;;3.33;3.33;;;;;28.65;41.36;101752.66;5040889;28;45285;-74
2022/07/11 10:40:45;;;;;;;;;2.00;2.00;;;;;28.78;41.38;101760.31;5051279;28;45317;-75
2022/07/11 10:43:12;;;;;;;;;18.00;17.00;;;;;28.91;41.61;101747.97;5044168;28;45328;-75
2022/07/11 10:45:57;;;;;;;;;18.67;17.33;;;;;29.16;40.82;101759.19;5058942;28;45411;-75
2022/07/11 10:48:24;;;;;;;;;14.67;13.67;;;;;29.27;40.67;101744.38;5024070;28;45211;-75
2022/07/11 10:51:02;;;;;;;;;40.00;33.33;;;;;29.41;41.17;101752.84;5051938;28;45249;-75
2022/07/11 10:53:33;;;;;;;;;7.67;7.67;;;;;29.59;40.37;101756.09;5058730;28;45316;-75
2022/07/11 10:56:14;;;;;;;;;2.67;2.67;;;;;29.74;40.31;101755.19;5040571;28;48357;-76
2022/07/11 10:58:43;;;;;;;;;3.67;3.67;;;;;29.81;39.76;101747.50;5028349;28;45733;-74
2022/07/11 11:01:11;;;;;;;;;11.33;10.00;;;;;29.97;39.59;101756.47;5058702;28;45347;-75
2022/07/11 11:03:38;;;;;;;;;3.00;3.00;;;;;30.13;39.31;101741.84;5058696;28;45364;-74
2022/07/11 11:06:03;;;;;;;;;4.33;2.67;;;;;30.27;38.42;101742.06;5058907;28;45469;-74
2022/07/11 11:08:42;;;;;;;;;14.33;14.00;;;;;30.36;38.81;101749.41;5062115;28;45352;-74
2022/07/11 11:11:34;;;;;;;;;23.00;20.00;;;;;30.50;38.49;101748.75;5062024;28;45221;-74
2022/07/11 11:14:15;;;;;;;;;7.00;5.33;;;;;30.66;38.46;101743.13;5036311;28;46091;-74
2022/07/11 11:16:41;;;;;;;;;3.00;3.00;;;;;30.80;37.79;101732.34;5057807;28;47738;-74
2022/07/11 11:19:07;;;;;;;;;4.00;3.00;;;;;30.93;37.70;101726.19;5043523;28;46654;-74
2022/07/11 11:21:32;;;;;;;;;2.00;2.00;;;;;31.10;36.55;101725.72;5060199;28;45834;-74
2022/07/11 11:24:00;;;;;;;;;7.33;7.33;;;;;31.18;37.00;101726.19;5061843;28;45576;-74